sensor_id;sensor_type;location;lat;lon;timestamp;P1;durP1;ratioP1;P2;durP2;ratioP2
26600;SDS011;14241;49.260;10.496;2023-04-24T00:02:03;2.28;;;0.60;;
26600;SDS011;14241;49.260;10.496;2023-04-24T00:04:29;0.63;;;0.45;;
26600;SDS011;14241;49.260;10.496;2023-04-24T00:06:54;0.82;;;0.52;;
26600;SDS011;14241;49.260;10.496;2023-04-24T00:09:22;2.83;;;0.70;;
26600;SDS011;14241;49.260;10.496;2023-04-24T00:11:48;0.60;;;0.60;;
26600;SDS011;14241;49.260;10.496;2023-04-24T00:14:13;0.85;;;0.50;;
26600;SDS011;14241;49.260;10.496;2023-04-24T00:16:38;0.70;;;0.57;;
26600;SDS011;14241;49.260;10.496;2023-04-24T00:19:04;0.77;;;0.55;;
26600;SDS011;14241;49.260;10.496;2023-04-24T00:21:31;2.25;;;0.60;;
26600;SDS011;14241;49.260;10.496;2023-04-24T00:23:57;0.95;;;0.60;;
26600;SDS011;14241;49.260;10.496;2023-04-24T00:26:23;2.45;;;0.70;;
26600;SDS011;14241;49.260;10.496;2023-04-24T00:28:51;0.98;;;0.60;;
26600;SDS011;14241;49.260;10.496;2023-04-24T00:31:16;1.92;;;0.60;;
26600;SDS011;14241;49.260;10.496;2023-04-24T00:33:42;4.97;;;0.80;;
26600;SDS011;14241;49.260;10.496;2023-04-24T00:36:07;1.63;;;0.65;;
26600;SDS011;14241;49.260;10.496;2023-04-24T00:38:32;1.03;;;0.50;;
26600;SDS011;14241;49.260;10.496;2023-04-24T00:40:58;1.70;;;0.60;;
26600;SDS011;14241;49.260;10.496;2023-04-24T00:43:23;0.93;;;0.60;;
26600;SDS011;14241;49.260;10.496;2023-04-24T00:45:48;0.80;;;0.60;;
26600;SDS011;14241;49.260;10.496;2023-04-24T00:48:14;2.42;;;0.60;;
26600;SDS011;14241;49.260;10.496;2023-04-24T00:50:39;4.43;;;0.85;;
26600;SDS011;14241;49.260;10.496;2023-04-24T00:53:05;0.98;;;0.60;;
26600;SDS011;14241;49.260;10.496;2023-04-24T00:55:30;1.75;;;0.70;;
26600;SDS011;14241;49.260;10.496;2023-04-24T00:57:56;1.17;;;0.57;;
26600;SDS011;14241;49.260;10.496;2023-04-24T01:00:21;2.30;;;0.63;;
26600;SDS011;14241;49.260;10.496;2023-04-24T01:02:47;1.35;;;0.47;;
26600;SDS011;14241;49.260;10.496;2023-04-24T01:05:13;1.25;;;0.60;;
26600;SDS011;14241;49.260;10.496;2023-04-24T01:07:40;2.10;;;0.70;;
26600;SDS011;14241;49.260;10.496;2023-04-24T01:10:09;1.27;;;0.50;;
26600;SDS011;14241;49.260;10.496;2023-04-24T01:12:34;3.78;;;1.15;;
26600;SDS011;14241;49.260;10.496;2023-04-24T01:14:59;3.30;;;0.85;;
26600;SDS011;14241;49.260;10.496;2023-04-24T01:17:25;0.70;;;0.65;;
26600;SDS011;14241;49.260;10.496;2023-04-24T01:19:50;3.20;;;0.70;;
26600;SDS011;14241;49.260;10.496;2023-04-24T01:22:18;0.98;;;0.70;;
26600;SDS011;14241;49.260;10.496;2023-04-24T01:24:45;1.77;;;0.80;;
26600;SDS011;14241;49.260;10.496;2023-04-24T01:27:11;2.28;;;0.82;;
26600;SDS011;14241;49.260;10.496;2023-04-24T01:29:36;2.42;;;0.75;;
26600;SDS011;14241;49.260;10.496;2023-04-24T01:32:02;2.97;;;0.90;;
26600;SDS011;14241;49.260;10.496;2023-04-24T01:34:28;2.05;;;0.82;;
26600;SDS011;14241;49.260;10.496;2023-04-24T01:36:53;2.30;;;0.80;;
26600;SDS011;14241;49.260;10.496;2023-04-24T01:39:19;2.88;;;0.70;;
26600;SDS011;14241;49.260;10.496;2023-04-24T01:41:45;1.95;;;0.70;;
26600;SDS011;14241;49.260;10.496;2023-04-24T01:44:11;7.38;;;0.80;;
26600;SDS011;14241;49.260;10.496;2023-04-24T01:46:36;1.55;;;0.80;;
26600;SDS011;14241;49.260;10.496;2023-04-24T01:49:02;2.28;;;0.80;;
26600;SDS011;14241;49.260;10.496;2023-04-24T01:51:27;1.13;;;0.70;;
26600;SDS011;14241;49.260;10.496;2023-04-24T01:53:53;2.67;;;0.63;;
26600;SDS011;14241;49.260;10.496;2023-04-24T01:56:19;1.08;;;0.80;;
26600;SDS011;14241;49.260;10.496;2023-04-24T01:58:45;1.15;;;0.80;;
26600;SDS011;14241;49.260;10.496;2023-04-24T02:01:14;1.00;;;0.70;;
26600;SDS011;14241;49.260;10.496;2023-04-24T02:03:40;2.20;;;0.70;;
26600;SDS011;14241;49.260;10.496;2023-04-24T02:06:05;0.85;;;0.50;;
26600;SDS011;14241;49.260;10.496;2023-04-24T02:08:30;4.15;;;0.85;;
26600;SDS011;14241;49.260;10.496;2023-04-24T02:10:56;4.25;;;1.00;;
26600;SDS011;14241;49.260;10.496;2023-04-24T02:13:21;0.70;;;0.70;;
26600;SDS011;14241;49.260;10.496;2023-04-24T02:15:46;3.83;;;1.00;;
26600;SDS011;14241;49.260;10.496;2023-04-24T02:18:11;0.60;;;0.60;;
26600;SDS011;14241;49.260;10.496;2023-04-24T02:20:37;1.40;;;0.65;;
26600;SDS011;14241;49.260;10.496;2023-04-24T02:23:03;0.88;;;0.70;;
26600;SDS011;14241;49.260;10.496;2023-04-24T02:25:28;4.28;;;0.80;;
26600;SDS011;14241;49.260;10.496;2023-04-24T02:27:53;3.28;;;0.77;;
26600;SDS011;14241;49.260;10.496;2023-04-24T02:30:18;0.93;;;0.70;;
26600;SDS011;14241;49.260;10.496;2023-04-24T02:32:44;0.85;;;0.60;;
26600;SDS011;14241;49.260;10.496;2023-04-24T02:35:10;0.77;;;0.63;;
26600;SDS011;14241;49.260;10.496;2023-04-24T02:37:35;1.80;;;0.75;;
26600;SDS011;14241;49.260;10.496;2023-04-24T02:40:00;2.25;;;0.85;;
26600;SDS011;14241;49.260;10.496;2023-04-24T02:42:25;1.77;;;0.90;;
26600;SDS011;14241;49.260;10.496;2023-04-24T02:44:51;1.02;;;0.70;;
26600;SDS011;14241;49.260;10.496;2023-04-24T02:47:16;2.05;;;0.60;;
26600;SDS011;14241;49.260;10.496;2023-04-24T02:49:41;1.08;;;0.70;;
26600;SDS011;14241;49.260;10.496;2023-04-24T02:52:07;0.88;;;0.60;;
26600;SDS011;14241;49.260;10.496;2023-04-24T02:54:32;1.80;;;0.80;;
26600;SDS011;14241;49.260;10.496;2023-04-24T02:56:57;1.33;;;0.90;;
26600;SDS011;14241;49.260;10.496;2023-04-24T02:59:23;1.23;;;0.70;;
26600;SDS011;14241;49.260;10.496;2023-04-24T03:01:48;2.83;;;1.10;;
26600;SDS011;14241;49.260;10.496;2023-04-24T03:04:13;1.03;;;0.83;;
26600;SDS011;14241;49.260;10.496;2023-04-24T03:06:38;1.77;;;0.73;;
26600;SDS011;14241;49.260;10.496;2023-04-24T03:09:03;2.72;;;0.77;;
26600;SDS011;14241;49.260;10.496;2023-04-24T03:11:29;1.55;;;0.88;;
26600;SDS011;14241;49.260;10.496;2023-04-24T03:13:54;0.90;;;0.80;;
26600;SDS011;14241;49.260;10.496;2023-04-24T03:16:20;4.35;;;0.80;;
26600;SDS011;14241;49.260;10.496;2023-04-24T03:18:45;4.00;;;0.90;;
26600;SDS011;14241;49.260;10.496;2023-04-24T03:21:11;2.28;;;0.80;;
26600;SDS011;14241;49.260;10.496;2023-04-24T03:23:36;1.98;;;0.88;;
26600;SDS011;14241;49.260;10.496;2023-04-24T03:26:01;2.00;;;0.88;;
26600;SDS011;14241;49.260;10.496;2023-04-24T03:28:27;1.13;;;0.80;;
26600;SDS011;14241;49.260;10.496;2023-04-24T03:30:52;1.83;;;1.00;;
26600;SDS011;14241;49.260;10.496;2023-04-24T03:33:17;2.00;;;1.00;;
26600;SDS011;14241;49.260;10.496;2023-04-24T03:35:43;1.40;;;0.80;;
26600;SDS011;14241;49.260;10.496;2023-04-24T03:38:08;2.58;;;1.00;;
26600;SDS011;14241;49.260;10.496;2023-04-24T03:40:33;1.85;;;0.77;;
26600;SDS011;14241;49.260;10.496;2023-04-24T03:42:59;1.67;;;0.70;;
26600;SDS011;14241;49.260;10.496;2023-04-24T03:45:24;3.58;;;0.90;;
26600;SDS011;14241;49.260;10.496;2023-04-24T03:47:49;1.13;;;0.70;;
26600;SDS011;14241;49.260;10.496;2023-04-24T03:50:15;1.67;;;0.80;;
26600;SDS011;14241;49.260;10.496;2023-04-24T03:52:40;3.42;;;1.08;;
26600;SDS011;14241;49.260;10.496;2023-04-24T03:55:06;1.10;;;0.93;;
26600;SDS011;14241;49.260;10.496;2023-04-24T03:57:31;1.45;;;0.95;;
26600;SDS011;14241;49.260;10.496;2023-04-24T03:59:56;2.60;;;0.90;;
26600;SDS011;14241;49.260;10.496;2023-04-24T04:02:22;3.33;;;0.90;;
26600;SDS011;14241;49.260;10.496;2023-04-24T04:04:47;1.10;;;0.90;;
26600;SDS011;14241;49.260;10.496;2023-04-24T04:07:12;1.23;;;0.80;;
26600;SDS011;14241;49.260;10.496;2023-04-24T04:09:38;0.80;;;0.80;;
26600;SDS011;14241;49.260;10.496;2023-04-24T04:12:03;1.80;;;0.98;;
26600;SDS011;14241;49.260;10.496;2023-04-24T04:14:28;1.33;;;0.73;;
26600;SDS011;14241;49.260;10.496;2023-04-24T04:16:54;2.25;;;1.02;;
26600;SDS011;14241;49.260;10.496;2023-04-24T04:19:19;2.50;;;0.82;;
26600;SDS011;14241;49.260;10.496;2023-04-24T04:21:44;4.18;;;1.08;;
26600;SDS011;14241;49.260;10.496;2023-04-24T04:24:11;1.25;;;0.70;;
26600;SDS011;14241;49.260;10.496;2023-04-24T04:26:36;1.00;;;0.82;;
26600;SDS011;14241;49.260;10.496;2023-04-24T04:29:02;3.53;;;0.85;;
26600;SDS011;14241;49.260;10.496;2023-04-24T04:31:28;4.65;;;1.00;;
26600;SDS011;14241;49.260;10.496;2023-04-24T04:33:54;2.28;;;0.88;;
26600;SDS011;14241;49.260;10.496;2023-04-24T04:36:19;2.03;;;1.00;;
26600;SDS011;14241;49.260;10.496;2023-04-24T04:38:44;4.10;;;1.08;;
26600;SDS011;14241;49.260;10.496;2023-04-24T04:41:10;1.08;;;0.90;;
26600;SDS011;14241;49.260;10.496;2023-04-24T04:43:35;1.05;;;0.80;;
26600;SDS011;14241;49.260;10.496;2023-04-24T04:46:01;2.70;;;1.40;;
26600;SDS011;14241;49.260;10.496;2023-04-24T04:48:28;4.10;;;1.23;;
26600;SDS011;14241;49.260;10.496;2023-04-24T04:50:53;2.13;;;1.02;;
26600;SDS011;14241;49.260;10.496;2023-04-24T04:53:19;2.78;;;0.98;;
26600;SDS011;14241;49.260;10.496;2023-04-24T04:55:44;1.50;;;1.00;;
26600;SDS011;14241;49.260;10.496;2023-04-24T04:58:11;1.63;;;1.00;;
26600;SDS011;14241;49.260;10.496;2023-04-24T05:00:36;1.65;;;0.68;;
26600;SDS011;14241;49.260;10.496;2023-04-24T05:03:02;2.55;;;0.80;;
26600;SDS011;14241;49.260;10.496;2023-04-24T05:05:28;1.60;;;1.10;;
26600;SDS011;14241;49.260;10.496;2023-04-24T05:07:53;4.43;;;1.50;;
26600;SDS011;14241;49.260;10.496;2023-04-24T05:10:19;2.80;;;0.90;;
26600;SDS011;14241;49.260;10.496;2023-04-24T05:12:44;2.13;;;0.98;;
26600;SDS011;14241;49.260;10.496;2023-04-24T05:15:10;3.72;;;0.90;;
26600;SDS011;14241;49.260;10.496;2023-04-24T05:17:35;2.92;;;0.75;;
26600;SDS011;14241;49.260;10.496;2023-04-24T05:20:01;2.70;;;0.70;;
26600;SDS011;14241;49.260;10.496;2023-04-24T05:22:27;2.15;;;0.80;;
26600;SDS011;14241;49.260;10.496;2023-04-24T05:24:52;3.03;;;0.88;;
26600;SDS011;14241;49.260;10.496;2023-04-24T05:27:18;2.03;;;0.90;;
26600;SDS011;14241;49.260;10.496;2023-04-24T05:29:43;1.52;;;0.88;;
26600;SDS011;14241;49.260;10.496;2023-04-24T05:32:08;1.75;;;0.65;;
26600;SDS011;14241;49.260;10.496;2023-04-24T05:34:34;2.28;;;1.00;;
26600;SDS011;14241;49.260;10.496;2023-04-24T05:36:59;1.13;;;0.75;;
26600;SDS011;14241;49.260;10.496;2023-04-24T05:39:25;1.80;;;0.80;;
26600;SDS011;14241;49.260;10.496;2023-04-24T05:41:50;1.02;;;0.85;;
26600;SDS011;14241;49.260;10.496;2023-04-24T05:44:16;1.95;;;0.80;;
26600;SDS011;14241;49.260;10.496;2023-04-24T05:46:41;1.38;;;0.70;;
26600;SDS011;14241;49.260;10.496;2023-04-24T05:49:06;3.63;;;0.90;;
26600;SDS011;14241;49.260;10.496;2023-04-24T05:51:31;1.93;;;0.60;;
26600;SDS011;14241;49.260;10.496;2023-04-24T05:53:57;0.85;;;0.60;;
26600;SDS011;14241;49.260;10.496;2023-04-24T05:56:22;1.73;;;0.70;;
26600;SDS011;14241;49.260;10.496;2023-04-24T05:58:48;1.73;;;0.75;;
26600;SDS011;14241;49.260;10.496;2023-04-24T06:01:13;2.03;;;0.55;;
26600;SDS011;14241;49.260;10.496;2023-04-24T06:03:41;3.38;;;0.60;;
26600;SDS011;14241;49.260;10.496;2023-04-24T06:06:07;0.93;;;0.50;;
26600;SDS011;14241;49.260;10.496;2023-04-24T06:08:32;0.70;;;0.45;;
26600;SDS011;14241;49.260;10.496;2023-04-24T06:10:58;0.50;;;0.40;;
26600;SDS011;14241;49.260;10.496;2023-04-24T06:13:23;2.08;;;0.60;;
26600;SDS011;14241;49.260;10.496;2023-04-24T06:15:49;1.10;;;0.45;;
26600;SDS011;14241;49.260;10.496;2023-04-24T06:18:14;4.57;;;0.70;;
26600;SDS011;14241;49.260;10.496;2023-04-24T06:20:40;1.08;;;0.40;;
26600;SDS011;14241;49.260;10.496;2023-04-24T06:23:05;1.38;;;0.50;;
26600;SDS011;14241;49.260;10.496;2023-04-24T06:25:30;0.40;;;0.40;;
26600;SDS011;14241;49.260;10.496;2023-04-24T06:27:56;0.50;;;0.50;;
26600;SDS011;14241;49.260;10.496;2023-04-24T06:30:22;0.50;;;0.50;;
26600;SDS011;14241;49.260;10.496;2023-04-24T06:32:47;0.82;;;0.65;;
26600;SDS011;14241;49.260;10.496;2023-04-24T06:35:13;1.05;;;0.70;;
26600;SDS011;14241;49.260;10.496;2023-04-24T06:37:39;1.02;;;0.90;;
26600;SDS011;14241;49.260;10.496;2023-04-24T06:40:05;3.00;;;1.35;;
26600;SDS011;14241;49.260;10.496;2023-04-24T06:42:30;1.45;;;1.33;;
26600;SDS011;14241;49.260;10.496;2023-04-24T06:44:56;2.38;;;1.40;;
26600;SDS011;14241;49.260;10.496;2023-04-24T06:47:21;2.63;;;1.27;;
26600;SDS011;14241;49.260;10.496;2023-04-24T06:49:46;2.78;;;1.23;;
26600;SDS011;14241;49.260;10.496;2023-04-24T06:52:11;2.85;;;1.30;;
26600;SDS011;14241;49.260;10.496;2023-04-24T06:54:37;2.28;;;1.30;;
26600;SDS011;14241;49.260;10.496;2023-04-24T06:57:02;2.38;;;1.60;;
26600;SDS011;14241;49.260;10.496;2023-04-24T06:59:28;1.95;;;1.52;;
26600;SDS011;14241;49.260;10.496;2023-04-24T07:01:53;2.25;;;1.50;;
26600;SDS011;14241;49.260;10.496;2023-04-24T07:04:18;2.47;;;1.83;;
26600;SDS011;14241;49.260;10.496;2023-04-24T07:06:44;2.20;;;2.00;;
26600;SDS011;14241;49.260;10.496;2023-04-24T07:09:10;4.03;;;1.60;;
26600;SDS011;14241;49.260;10.496;2023-04-24T07:11:36;2.15;;;1.90;;
26600;SDS011;14241;49.260;10.496;2023-04-24T07:14:03;2.92;;;2.28;;
26600;SDS011;14241;49.260;10.496;2023-04-24T07:16:28;1.65;;;1.50;;
26600;SDS011;14241;49.260;10.496;2023-04-24T07:18:53;2.10;;;1.90;;
26600;SDS011;14241;49.260;10.496;2023-04-24T07:21:18;3.30;;;2.17;;
26600;SDS011;14241;49.260;10.496;2023-04-24T07:23:44;3.05;;;1.98;;
26600;SDS011;14241;49.260;10.496;2023-04-24T07:26:09;2.08;;;1.88;;
26600;SDS011;14241;49.260;10.496;2023-04-24T07:28:34;3.65;;;2.53;;
26600;SDS011;14241;49.260;10.496;2023-04-24T07:31:00;3.40;;;2.30;;
26600;SDS011;14241;49.260;10.496;2023-04-24T07:33:28;3.63;;;2.33;;
26600;SDS011;14241;49.260;10.496;2023-04-24T07:35:53;3.30;;;2.42;;
26600;SDS011;14241;49.260;10.496;2023-04-24T07:38:18;3.63;;;2.63;;
26600;SDS011;14241;49.260;10.496;2023-04-24T07:40:47;4.60;;;2.60;;
26600;SDS011;14241;49.260;10.496;2023-04-24T07:43:12;3.55;;;2.20;;
26600;SDS011;14241;49.260;10.496;2023-04-24T07:45:38;2.20;;;2.00;;
26600;SDS011;14241;49.260;10.496;2023-04-24T07:48:04;4.25;;;2.42;;
26600;SDS011;14241;49.260;10.496;2023-04-24T07:50:30;4.10;;;2.38;;
26600;SDS011;14241;49.260;10.496;2023-04-24T07:52:55;4.10;;;2.50;;
26600;SDS011;14241;49.260;10.496;2023-04-24T07:55:21;2.15;;;1.95;;
26600;SDS011;14241;49.260;10.496;2023-04-24T07:57:46;2.88;;;1.88;;
26600;SDS011;14241;49.260;10.496;2023-04-24T08:00:12;2.63;;;2.17;;
26600;SDS011;14241;49.260;10.496;2023-04-24T08:02:37;2.92;;;2.08;;
26600;SDS011;14241;49.260;10.496;2023-04-24T08:05:02;2.28;;;1.63;;
26600;SDS011;14241;49.260;10.496;2023-04-24T08:07:28;3.20;;;1.90;;
26600;SDS011;14241;49.260;10.496;2023-04-24T08:09:53;2.17;;;1.80;;
26600;SDS011;14241;49.260;10.496;2023-04-24T08:12:19;2.65;;;1.90;;
26600;SDS011;14241;49.260;10.496;2023-04-24T08:14:44;2.10;;;1.83;;
26600;SDS011;14241;49.260;10.496;2023-04-24T08:17:09;3.15;;;1.75;;
26600;SDS011;14241;49.260;10.496;2023-04-24T08:19:35;3.65;;;1.85;;
26600;SDS011;14241;49.260;10.496;2023-04-24T08:22:00;2.67;;;2.00;;
26600;SDS011;14241;49.260;10.496;2023-04-24T08:24:25;3.20;;;2.30;;
26600;SDS011;14241;49.260;10.496;2023-04-24T08:26:50;2.55;;;1.75;;
26600;SDS011;14241;49.260;10.496;2023-04-24T08:29:16;2.30;;;1.48;;
26600;SDS011;14241;49.260;10.496;2023-04-24T08:31:41;2.03;;;1.80;;
26600;SDS011;14241;49.260;10.496;2023-04-24T08:34:07;2.43;;;1.80;;
26600;SDS011;14241;49.260;10.496;2023-04-24T08:36:32;2.27;;;1.77;;
26600;SDS011;14241;49.260;10.496;2023-04-24T08:38:57;2.95;;;1.90;;
26600;SDS011;14241;49.260;10.496;2023-04-24T08:41:22;2.15;;;1.60;;
26600;SDS011;14241;49.260;10.496;2023-04-24T08:43:51;4.53;;;1.73;;
26600;SDS011;14241;49.260;10.496;2023-04-24T08:46:16;1.80;;;1.55;;
26600;SDS011;14241;49.260;10.496;2023-04-24T08:48:42;2.92;;;1.35;;
26600;SDS011;14241;49.260;10.496;2023-04-24T08:51:07;1.95;;;1.40;;
26600;SDS011;14241;49.260;10.496;2023-04-24T08:53:33;4.90;;;1.52;;
26600;SDS011;14241;49.260;10.496;2023-04-24T08:55:58;2.35;;;1.35;;
26600;SDS011;14241;49.260;10.496;2023-04-24T08:58:26;2.28;;;1.42;;
26600;SDS011;14241;49.260;10.496;2023-04-24T09:00:53;2.25;;;1.15;;
26600;SDS011;14241;49.260;10.496;2023-04-24T09:03:19;1.42;;;1.00;;
26600;SDS011;14241;49.260;10.496;2023-04-24T09:05:46;4.45;;;1.15;;
26600;SDS011;14241;49.260;10.496;2023-04-24T09:08:13;3.47;;;1.30;;
26600;SDS011;14241;49.260;10.496;2023-04-24T09:10:39;4.05;;;0.98;;
26600;SDS011;14241;49.260;10.496;2023-04-24T09:13:04;2.45;;;1.30;;
26600;SDS011;14241;49.260;10.496;2023-04-24T09:15:30;2.22;;;1.25;;
26600;SDS011;14241;49.260;10.496;2023-04-24T09:17:55;1.05;;;0.95;;
26600;SDS011;14241;49.260;10.496;2023-04-24T09:20:21;3.20;;;1.55;;
26600;SDS011;14241;49.260;10.496;2023-04-24T09:22:46;2.15;;;1.10;;
26600;SDS011;14241;49.260;10.496;2023-04-24T09:25:12;3.30;;;1.50;;
26600;SDS011;14241;49.260;10.496;2023-04-24T09:27:41;2.13;;;1.40;;
26600;SDS011;14241;49.260;10.496;2023-04-24T09:30:06;2.13;;;1.48;;
26600;SDS011;14241;49.260;10.496;2023-04-24T09:32:32;1.65;;;1.13;;
26600;SDS011;14241;49.260;10.496;2023-04-24T09:35:13;1.98;;;1.50;;
26600;SDS011;14241;49.260;10.496;2023-04-24T09:37:42;2.55;;;1.17;;
26600;SDS011;14241;49.260;10.496;2023-04-24T09:42:33;4.33;;;1.43;;
26600;SDS011;14241;49.260;10.496;2023-04-24T09:44:59;2.65;;;1.45;;
26600;SDS011;14241;49.260;10.496;2023-04-24T09:47:24;1.38;;;1.00;;
26600;SDS011;14241;49.260;10.496;2023-04-24T09:49:49;1.87;;;0.97;;
26600;SDS011;14241;49.260;10.496;2023-04-24T09:52:15;2.43;;;1.20;;
26600;SDS011;14241;49.260;10.496;2023-04-24T09:54:40;3.05;;;1.10;;
26600;SDS011;14241;49.260;10.496;2023-04-24T09:57:08;3.60;;;1.00;;
26600;SDS011;14241;49.260;10.496;2023-04-24T09:59:34;4.57;;;1.00;;
26600;SDS011;14241;49.260;10.496;2023-04-24T10:02:00;3.17;;;1.05;;
26600;SDS011;14241;49.260;10.496;2023-04-24T10:04:26;3.50;;;1.00;;
26600;SDS011;14241;49.260;10.496;2023-04-24T10:06:52;2.63;;;1.38;;
26600;SDS011;14241;49.260;10.496;2023-04-24T10:09:18;1.75;;;0.70;;
26600;SDS011;14241;49.260;10.496;2023-04-24T10:11:45;0.80;;;0.70;;
26600;SDS011;14241;49.260;10.496;2023-04-24T10:14:14;1.33;;;0.70;;
26600;SDS011;14241;49.260;10.496;2023-04-24T10:16:40;2.20;;;0.80;;
26600;SDS011;14241;49.260;10.496;2023-04-24T10:19:06;1.60;;;0.60;;
26600;SDS011;14241;49.260;10.496;2023-04-24T10:21:32;2.90;;;1.00;;
26600;SDS011;14241;49.260;10.496;2023-04-24T10:23:57;1.80;;;1.20;;
26600;SDS011;14241;49.260;10.496;2023-04-24T10:26:24;1.55;;;1.08;;
26600;SDS011;14241;49.260;10.496;2023-04-24T10:28:51;1.00;;;0.85;;
26600;SDS011;14241;49.260;10.496;2023-04-24T10:31:17;1.98;;;1.23;;
26600;SDS011;14241;49.260;10.496;2023-04-24T10:33:42;1.30;;;0.93;;
26600;SDS011;14241;49.260;10.496;2023-04-24T10:36:09;2.03;;;0.90;;
26600;SDS011;14241;49.260;10.496;2023-04-24T10:38:34;1.48;;;0.90;;
26600;SDS011;14241;49.260;10.496;2023-04-24T10:41:10;3.40;;;1.20;;
26600;SDS011;14241;49.260;10.496;2023-04-24T10:43:41;1.75;;;0.90;;
26600;SDS011;14241;49.260;10.496;2023-04-24T10:46:08;0.65;;;0.60;;
26600;SDS011;14241;49.260;10.496;2023-04-24T10:48:35;1.40;;;1.05;;
26600;SDS011;14241;49.260;10.496;2023-04-24T10:51:00;4.53;;;0.80;;
26600;SDS011;14241;49.260;10.496;2023-04-24T10:53:29;1.77;;;0.80;;
26600;SDS011;14241;49.260;10.496;2023-04-24T10:58:23;1.83;;;0.90;;
26600;SDS011;14241;49.260;10.496;2023-04-24T11:00:58;2.20;;;1.05;;
26600;SDS011;14241;49.260;10.496;2023-04-24T11:03:24;2.22;;;0.65;;
26600;SDS011;14241;49.260;10.496;2023-04-24T11:06:03;1.13;;;1.02;;
26600;SDS011;14241;49.260;10.496;2023-04-24T11:08:30;1.10;;;0.95;;
26600;SDS011;14241;49.260;10.496;2023-04-24T11:10:57;1.55;;;1.00;;
26600;SDS011;14241;49.260;10.496;2023-04-24T11:13:23;1.30;;;1.20;;
26600;SDS011;14241;49.260;10.496;2023-04-24T11:18:37;2.00;;;1.17;;
26600;SDS011;14241;49.260;10.496;2023-04-24T11:21:09;1.83;;;1.17;;
26600;SDS011;14241;49.260;10.496;2023-04-24T11:23:35;1.38;;;1.10;;
26600;SDS011;14241;49.260;10.496;2023-04-24T11:26:09;2.13;;;0.95;;
26600;SDS011;14241;49.260;10.496;2023-04-24T11:28:35;1.48;;;1.02;;
26600;SDS011;14241;49.260;10.496;2023-04-24T11:31:33;1.23;;;0.80;;
26600;SDS011;14241;49.260;10.496;2023-04-24T11:33:46;1.48;;;1.00;;
26600;SDS011;14241;49.260;10.496;2023-04-24T11:36:11;2.08;;;1.08;;
26600;SDS011;14241;49.260;10.496;2023-04-24T11:38:38;0.80;;;0.80;;
26600;SDS011;14241;49.260;10.496;2023-04-24T11:41:03;1.45;;;0.90;;
26600;SDS011;14241;49.260;10.496;2023-04-24T11:43:30;3.00;;;1.02;;
26600;SDS011;14241;49.260;10.496;2023-04-24T11:45:59;1.48;;;0.70;;
26600;SDS011;14241;49.260;10.496;2023-04-24T11:48:24;1.05;;;0.95;;
26600;SDS011;14241;49.260;10.496;2023-04-24T11:50:49;1.77;;;0.90;;
26600;SDS011;14241;49.260;10.496;2023-04-24T11:53:15;1.60;;;1.02;;
26600;SDS011;14241;49.260;10.496;2023-04-24T11:55:40;1.48;;;1.05;;
26600;SDS011;14241;49.260;10.496;2023-04-24T11:58:06;1.70;;;0.90;;
26600;SDS011;14241;49.260;10.496;2023-04-24T12:00:32;1.47;;;1.13;;
26600;SDS011;14241;49.260;10.496;2023-04-24T12:03:03;2.03;;;1.10;;
26600;SDS011;14241;49.260;10.496;2023-04-24T12:05:29;2.40;;;1.40;;
26600;SDS011;14241;49.260;10.496;2023-04-24T12:07:56;1.48;;;1.20;;
26600;SDS011;14241;49.260;10.496;2023-04-24T12:10:26;3.10;;;1.52;;
26600;SDS011;14241;49.260;10.496;2023-04-24T12:12:52;1.50;;;1.30;;
26600;SDS011;14241;49.260;10.496;2023-04-24T12:15:18;3.03;;;1.75;;
26600;SDS011;14241;49.260;10.496;2023-04-24T12:17:43;3.20;;;1.55;;
26600;SDS011;14241;49.260;10.496;2023-04-24T12:20:09;5.20;;;1.77;;
26600;SDS011;14241;49.260;10.496;2023-04-24T12:22:44;1.05;;;1.05;;
26600;SDS011;14241;49.260;10.496;2023-04-24T12:25:10;2.13;;;1.65;;
26600;SDS011;14241;49.260;10.496;2023-04-24T12:27:36;1.58;;;1.40;;
26600;SDS011;14241;49.260;10.496;2023-04-24T12:30:03;1.83;;;1.40;;
26600;SDS011;14241;49.260;10.496;2023-04-24T12:32:28;3.20;;;1.45;;
26600;SDS011;14241;49.260;10.496;2023-04-24T12:34:54;2.57;;;1.30;;
26600;SDS011;14241;49.260;10.496;2023-04-24T12:37:20;2.65;;;1.60;;
26600;SDS011;14241;49.260;10.496;2023-04-24T12:42:47;2.03;;;1.50;;
26600;SDS011;14241;49.260;10.496;2023-04-24T12:45:13;1.92;;;1.40;;
26600;SDS011;14241;49.260;10.496;2023-04-24T12:47:39;4.82;;;1.23;;
26600;SDS011;14241;49.260;10.496;2023-04-24T12:50:05;2.78;;;1.63;;
26600;SDS011;14241;49.260;10.496;2023-04-24T12:52:31;2.25;;;1.60;;
26600;SDS011;14241;49.260;10.496;2023-04-24T12:54:57;2.63;;;1.52;;
26600;SDS011;14241;49.260;10.496;2023-04-24T12:57:23;2.53;;;1.58;;
26600;SDS011;14241;49.260;10.496;2023-04-24T12:59:49;5.05;;;1.75;;
26600;SDS011;14241;49.260;10.496;2023-04-24T13:02:14;5.63;;;1.73;;
26600;SDS011;14241;49.260;10.496;2023-04-24T13:04:43;3.10;;;2.10;;
26600;SDS011;14241;49.260;10.496;2023-04-24T13:07:09;2.83;;;1.90;;
26600;SDS011;14241;49.260;10.496;2023-04-24T13:09:34;3.00;;;1.73;;
26600;SDS011;14241;49.260;10.496;2023-04-24T13:12:00;5.85;;;1.58;;
26600;SDS011;14241;49.260;10.496;2023-04-24T13:14:25;2.28;;;1.88;;
26600;SDS011;14241;49.260;10.496;2023-04-24T13:16:51;3.35;;;2.00;;
26600;SDS011;14241;49.260;10.496;2023-04-24T13:19:17;3.10;;;1.98;;
26600;SDS011;14241;49.260;10.496;2023-04-24T13:21:43;2.33;;;1.70;;
26600;SDS011;14241;49.260;10.496;2023-04-24T13:24:08;2.45;;;2.25;;
26600;SDS011;14241;49.260;10.496;2023-04-24T13:26:34;2.70;;;2.00;;
26600;SDS011;14241;49.260;10.496;2023-04-24T13:28:59;9.48;;;2.15;;
26600;SDS011;14241;49.260;10.496;2023-04-24T13:31:24;5.82;;;1.90;;
26600;SDS011;14241;49.260;10.496;2023-04-24T13:33:50;2.42;;;1.63;;
26600;SDS011;14241;49.260;10.496;2023-04-24T13:36:15;2.63;;;1.65;;
26600;SDS011;14241;49.260;10.496;2023-04-24T13:38:42;2.15;;;1.95;;
26600;SDS011;14241;49.260;10.496;2023-04-24T13:41:07;2.80;;;2.10;;
26600;SDS011;14241;49.260;10.496;2023-04-24T13:43:33;3.05;;;2.15;;
26600;SDS011;14241;49.260;10.496;2023-04-24T13:45:58;4.22;;;2.17;;
26600;SDS011;14241;49.260;10.496;2023-04-24T13:48:24;3.97;;;2.05;;
26600;SDS011;14241;49.260;10.496;2023-04-24T13:50:50;3.25;;;1.92;;
26600;SDS011;14241;49.260;10.496;2023-04-24T13:53:15;3.53;;;1.98;;
26600;SDS011;14241;49.260;10.496;2023-04-24T13:55:40;2.30;;;2.10;;
26600;SDS011;14241;49.260;10.496;2023-04-24T13:58:06;2.97;;;2.20;;
26600;SDS011;14241;49.260;10.496;2023-04-24T14:00:31;2.72;;;1.98;;
26600;SDS011;14241;49.260;10.496;2023-04-24T14:02:56;2.33;;;1.73;;
26600;SDS011;14241;49.260;10.496;2023-04-24T14:05:22;2.65;;;1.70;;
26600;SDS011;14241;49.260;10.496;2023-04-24T14:07:47;3.97;;;1.98;;
26600;SDS011;14241;49.260;10.496;2023-04-24T14:10:12;3.10;;;2.00;;
26600;SDS011;14241;49.260;10.496;2023-04-24T14:12:37;3.30;;;1.85;;
26600;SDS011;14241;49.260;10.496;2023-04-24T14:15:03;3.80;;;2.00;;
26600;SDS011;14241;49.260;10.496;2023-04-24T14:17:29;2.15;;;1.95;;
26600;SDS011;14241;49.260;10.496;2023-04-24T14:19:55;3.55;;;2.38;;
26600;SDS011;14241;49.260;10.496;2023-04-24T14:22:21;5.68;;;2.50;;
26600;SDS011;14241;49.260;10.496;2023-04-24T14:24:47;4.70;;;2.50;;
26600;SDS011;14241;49.260;10.496;2023-04-24T14:27:12;4.07;;;2.40;;
26600;SDS011;14241;49.260;10.496;2023-04-24T14:29:37;2.40;;;2.20;;
26600;SDS011;14241;49.260;10.496;2023-04-24T14:32:03;3.47;;;2.63;;
26600;SDS011;14241;49.260;10.496;2023-04-24T14:34:29;4.18;;;2.22;;
26600;SDS011;14241;49.260;10.496;2023-04-24T14:36:54;3.83;;;2.40;;